This is the latest recevied weather packets stored in our database for station/object DB0WV-6. If no packets are shown the sender has not sent any weather packets the latest 10 day(s).
| Time | Temp. | Humidity | Pressure | Rain* | Wind** | Luminosity | Snow |
|---|---|---|---|---|---|---|---|
| 1778019934 | 9.44° C | 89% | 1007.2 hPa | 0 mm | - | - | - |
| 1778018157 | 10° C | 87% | 1007.3 hPa | 0 mm | - | - | - |
| 1778013314 | 10.56° C | 85% | 1007.4 hPa | 0 mm | - | - | - |
| 1778012114 | 11.11° C | 83% | 1007.5 hPa | 0 mm | - | - | - |
| 1778010934 | 11.11° C | 82% | 1007.3 hPa | 0 mm | - | - | - |
| 1778008514 | 11.11° C | 83% | 1006.9 hPa | 0 mm | - | - | - |
| 1778006714 | 12.22° C | 81% | 1007 hPa | 0 mm | - | - | - |
| 1778000114 | 16.67° C | 61% | 1006.2 hPa | 0 mm | - | - | - |
| 1777998914 | 17.78° C | 59% | 1006.2 hPa | 0 mm | - | - | - |
| 1777998314 | 18.89° C | 53% | 1006.4 hPa | 0 mm | - | - | - |
| 1777997115 | 20° C | 51% | 1006.5 hPa | 0.25 mm | - | - | - |
| 1777995914 | 20° C | 52% | 1006.4 hPa | 1.78 mm | - | - | - |
| 1777995314 | 18.89° C | 56% | 1006.4 hPa | 1.78 mm | - | - | - |
| 1777980315 | 14.44° C | 77% | 1006.9 hPa | 0 mm | - | - | - |
| 1777977315 | 14.44° C | 74% | 1007 hPa | 0 mm | - | - | - |
| 1777976115 | 14.44° C | 74% | 1006.8 hPa | 0 mm | - | - | - |
| 1777971917 | 15.56° C | 70% | 1007.3 hPa | 0 mm | - | - | - |
| 1777968915 | 14.44° C | 74% | 1007.3 hPa | 0 mm | - | - | - |
| 1777966535 | 16.67° C | 66% | 1007.8 hPa | 0 mm | - | - | - |
| 1777956315 | 10.56° C | 86% | 1007.7 hPa | 0 mm | - | - | - |
| 1777955715 | 10° C | 87% | 1007.6 hPa | 0 mm | - | - | - |
| 1777954535 | 10° C | 89% | 1007.7 hPa | 0 mm | - | - | - |
| 1777949118 | 9.44° C | 85% | 1008.1 hPa | 0 mm | - | - | - |
| 1777939513 | 11.67° C | 72% | 1009.6 hPa | 0 mm | - | - | - |
| 1777938314 | 12.22° C | 72% | 1009.9 hPa | 0 mm | - | - | - |
* Rain latest hour (hover to see other rain measurements)
** Current wind speed in m/s (hover to see current wind gust speed)